sensor_id;sensor_type;location;lat;lon;timestamp;pressure;altitude;pressure_sealevel;temperature;humidity
32759;BME280;19125;52.360;9.974;2023-10-31T00:00:19;-15010.44;;;-145.17;75.41
32759;BME280;19125;52.360;9.974;2023-10-31T00:02:44;-15010.44;;;-145.17;75.10
32759;BME280;19125;52.360;9.974;2023-10-31T00:05:09;-15010.44;;;-145.17;75.09
32759;BME280;19125;52.360;9.974;2023-10-31T00:07:35;-15010.44;;;-145.17;75.15
32759;BME280;19125;52.360;9.974;2023-10-31T00:10:00;-15010.44;;;-145.17;75.10
32759;BME280;19125;52.360;9.974;2023-10-31T00:12:26;-15010.44;;;-145.17;75.46
32759;BME280;19125;52.360;9.974;2023-10-31T00:14:51;-15010.44;;;-145.17;75.33
32759;BME280;19125;52.360;9.974;2023-10-31T00:17:17;-15010.44;;;-145.17;75.21
32759;BME280;19125;52.360;9.974;2023-10-31T00:19:42;-15010.44;;;-145.17;75.51
32759;BME280;19125;52.360;9.974;2023-10-31T00:22:09;-15010.44;;;-145.17;75.37
32759;BME280;19125;52.360;9.974;2023-10-31T00:24:35;-15010.44;;;-145.17;75.29
32759;BME280;19125;52.360;9.974;2023-10-31T00:27:00;-15010.44;;;-145.17;75.28
32759;BME280;19125;52.360;9.974;2023-10-31T00:29:25;-15010.44;;;-145.17;75.56
32759;BME280;19125;52.360;9.974;2023-10-31T00:31:50;-15010.44;;;-145.17;75.46
32759;BME280;19125;52.360;9.974;2023-10-31T00:34:16;-15010.44;;;-145.17;75.25
32759;BME280;19125;52.360;9.974;2023-10-31T00:36:41;-15010.44;;;-145.17;75.50
32759;BME280;19125;52.360;9.974;2023-10-31T00:39:07;-15010.44;;;-145.17;75.62
32759;BME280;19125;52.360;9.974;2023-10-31T00:41:32;-15010.44;;;-145.17;75.46
32759;BME280;19125;52.360;9.974;2023-10-31T00:43:58;-15010.44;;;-145.17;75.79
32759;BME280;19125;52.360;9.974;2023-10-31T00:46:24;-15010.44;;;-145.17;75.81
32759;BME280;19125;52.360;9.974;2023-10-31T00:48:49;-15010.44;;;-145.17;75.86
32759;BME280;19125;52.360;9.974;2023-10-31T00:51:14;-15010.44;;;-145.17;75.74
32759;BME280;19125;52.360;9.974;2023-10-31T00:53:41;-15010.44;;;-145.17;75.87
32759;BME280;19125;52.360;9.974;2023-10-31T00:56:07;-15010.44;;;-145.17;75.98
32759;BME280;19125;52.360;9.974;2023-10-31T00:58:32;-15010.44;;;-145.17;75.99
32759;BME280;19125;52.360;9.974;2023-10-31T01:00:58;-15010.44;;;-145.17;76.03
32759;BME280;19125;52.360;9.974;2023-10-31T01:03:23;-15010.44;;;-145.17;76.11
32759;BME280;19125;52.360;9.974;2023-10-31T01:05:48;-15010.44;;;-145.17;76.03
32759;BME280;19125;52.360;9.974;2023-10-31T01:08:15;-15010.44;;;-145.17;76.28
32759;BME280;19125;52.360;9.974;2023-10-31T01:10:40;-15010.44;;;-145.17;76.08
32759;BME280;19125;52.360;9.974;2023-10-31T01:13:05;-15010.44;;;-145.17;76.40
32759;BME280;19125;52.360;9.974;2023-10-31T01:15:31;-15010.44;;;-145.17;76.22
32759;BME280;19125;52.360;9.974;2023-10-31T01:17:57;-15010.44;;;-145.17;76.36
32759;BME280;19125;52.360;9.974;2023-10-31T01:20:22;-15010.44;;;-145.17;76.19
32759;BME280;19125;52.360;9.974;2023-10-31T01:22:48;-15010.44;;;-145.17;76.56
32759;BME280;19125;52.360;9.974;2023-10-31T01:25:13;-15010.44;;;-145.17;76.21
32759;BME280;19125;52.360;9.974;2023-10-31T01:27:38;-15010.44;;;-145.17;76.42
32759;BME280;19125;52.360;9.974;2023-10-31T01:30:04;-15010.44;;;-145.17;76.42
32759;BME280;19125;52.360;9.974;2023-10-31T01:32:30;-15010.44;;;-145.17;76.71
32759;BME280;19125;52.360;9.974;2023-10-31T01:34:55;-15010.44;;;-145.17;76.69
32759;BME280;19125;52.360;9.974;2023-10-31T01:37:20;-15010.44;;;-145.17;76.65
32759;BME280;19125;52.360;9.974;2023-10-31T01:39:46;-15010.44;;;-145.17;76.82
32759;BME280;19125;52.360;9.974;2023-10-31T01:42:17;-15010.44;;;-145.17;76.74
32759;BME280;19125;52.360;9.974;2023-10-31T01:44:42;-15010.44;;;-145.17;76.80
32759;BME280;19125;52.360;9.974;2023-10-31T01:47:08;-15010.44;;;-145.17;76.67
32759;BME280;19125;52.360;9.974;2023-10-31T01:49:35;-15010.44;;;-145.17;76.71
32759;BME280;19125;52.360;9.974;2023-10-31T01:52:01;-15010.44;;;-145.17;76.76
32759;BME280;19125;52.360;9.974;2023-10-31T01:54:28;-15010.44;;;-145.17;76.82
32759;BME280;19125;52.360;9.974;2023-10-31T01:56:56;-15010.44;;;-145.17;76.98
32759;BME280;19125;52.360;9.974;2023-10-31T01:59:27;-15010.44;;;-145.17;76.92
32759;BME280;19125;52.360;9.974;2023-10-31T02:01:52;-15010.44;;;-145.17;76.97
32759;BME280;19125;52.360;9.974;2023-10-31T02:04:19;-15010.44;;;-145.17;77.13
32759;BME280;19125;52.360;9.974;2023-10-31T02:06:45;-15010.44;;;-145.17;76.93
32759;BME280;19125;52.360;9.974;2023-10-31T02:09:10;-15010.44;;;-145.17;77.15
32759;BME280;19125;52.360;9.974;2023-10-31T02:11:37;-15010.44;;;-145.17;76.91
32759;BME280;19125;52.360;9.974;2023-10-31T02:14:02;-15010.44;;;-145.17;77.09
32759;BME280;19125;52.360;9.974;2023-10-31T02:16:27;-15010.44;;;-145.17;77.20
32759;BME280;19125;52.360;9.974;2023-10-31T02:18:53;-15010.44;;;-145.17;77.26
32759;BME280;19125;52.360;9.974;2023-10-31T02:21:19;-15010.44;;;-145.17;77.29
32759;BME280;19125;52.360;9.974;2023-10-31T02:24:02;-15010.44;;;-145.17;77.01
32759;BME280;19125;52.360;9.974;2023-10-31T02:26:32;-15010.44;;;-145.17;77.37
32759;BME280;19125;52.360;9.974;2023-10-31T02:28:59;-15010.44;;;-145.17;77.27
32759;BME280;19125;52.360;9.974;2023-10-31T02:31:25;-15010.44;;;-145.17;77.36
32759;BME280;19125;52.360;9.974;2023-10-31T02:33:50;-15010.44;;;-145.17;77.52
32759;BME280;19125;52.360;9.974;2023-10-31T02:36:16;-15010.44;;;-145.17;77.61
32759;BME280;19125;52.360;9.974;2023-10-31T02:38:41;-15010.44;;;-145.17;77.33
32759;BME280;19125;52.360;9.974;2023-10-31T02:41:06;-15010.44;;;-145.17;77.50
32759;BME280;19125;52.360;9.974;2023-10-31T02:43:32;-15010.44;;;-145.17;77.62
32759;BME280;19125;52.360;9.974;2023-10-31T02:45:57;-15010.44;;;-145.17;77.59
32759;BME280;19125;52.360;9.974;2023-10-31T02:48:23;-15010.44;;;-145.17;77.46
32759;BME280;19125;52.360;9.974;2023-10-31T02:50:49;-15010.44;;;-145.17;77.62
32759;BME280;19125;52.360;9.974;2023-10-31T02:53:14;-15010.44;;;-145.17;77.50
32759;BME280;19125;52.360;9.974;2023-10-31T02:55:40;-15010.44;;;-145.17;77.53
32759;BME280;19125;52.360;9.974;2023-10-31T02:58:05;-15010.44;;;-145.17;77.57
32759;BME280;19125;52.360;9.974;2023-10-31T03:00:30;-15010.44;;;-145.17;77.69
32759;BME280;19125;52.360;9.974;2023-10-31T03:02:55;-15010.44;;;-145.17;78.05
32759;BME280;19125;52.360;9.974;2023-10-31T03:05:21;-15010.44;;;-145.17;77.80
32759;BME280;19125;52.360;9.974;2023-10-31T03:07:46;-15010.44;;;-145.17;77.70
32759;BME280;19125;52.360;9.974;2023-10-31T03:10:12;-15010.44;;;-145.17;77.82
32759;BME280;19125;52.360;9.974;2023-10-31T03:12:37;-15010.44;;;-145.17;77.71
32759;BME280;19125;52.360;9.974;2023-10-31T03:15:03;-15010.44;;;-145.17;77.67
32759;BME280;19125;52.360;9.974;2023-10-31T03:17:29;-15010.44;;;-145.17;77.62
32759;BME280;19125;52.360;9.974;2023-10-31T03:19:55;-15010.44;;;-145.17;77.71
32759;BME280;19125;52.360;9.974;2023-10-31T03:22:20;-15010.44;;;-145.17;77.83
32759;BME280;19125;52.360;9.974;2023-10-31T03:24:46;-15010.44;;;-145.17;77.63
32759;BME280;19125;52.360;9.974;2023-10-31T03:27:11;-15010.44;;;-145.17;77.68
32759;BME280;19125;52.360;9.974;2023-10-31T03:29:36;-15010.44;;;-145.17;77.74
32759;BME280;19125;52.360;9.974;2023-10-31T03:32:02;-15010.44;;;-145.17;77.50
32759;BME280;19125;52.360;9.974;2023-10-31T03:34:27;-15010.44;;;-145.17;78.00
32759;BME280;19125;52.360;9.974;2023-10-31T03:36:52;-15010.44;;;-145.17;77.75
32759;BME280;19125;52.360;9.974;2023-10-31T03:39:18;-15010.44;;;-145.17;78.02
32759;BME280;19125;52.360;9.974;2023-10-31T03:41:43;-15010.44;;;-145.17;78.01
32759;BME280;19125;52.360;9.974;2023-10-31T03:44:09;-15010.44;;;-145.17;77.80
32759;BME280;19125;52.360;9.974;2023-10-31T03:46:35;-15010.44;;;-145.17;77.79
32759;BME280;19125;52.360;9.974;2023-10-31T03:49:00;-15010.44;;;-145.17;77.65
32759;BME280;19125;52.360;9.974;2023-10-31T03:51:25;-15010.44;;;-145.17;77.67
32759;BME280;19125;52.360;9.974;2023-10-31T03:53:51;-15010.44;;;-145.17;77.44
32759;BME280;19125;52.360;9.974;2023-10-31T03:56:16;-15010.44;;;-145.17;76.97
32759;BME280;19125;52.360;9.974;2023-10-31T03:58:42;-15010.44;;;-145.17;76.65
32759;BME280;19125;52.360;9.974;2023-10-31T04:01:08;-15010.44;;;-145.17;75.99
32759;BME280;19125;52.360;9.974;2023-10-31T04:03:33;-15010.44;;;-145.17;75.50
32759;BME280;19125;52.360;9.974;2023-10-31T04:05:58;-15010.44;;;-145.17;75.43
32759;BME280;19125;52.360;9.974;2023-10-31T04:08:23;-15010.44;;;-145.17;75.01
32759;BME280;19125;52.360;9.974;2023-10-31T04:10:49;-15010.44;;;-145.17;74.65
32759;BME280;19125;52.360;9.974;2023-10-31T04:13:14;-15010.44;;;-145.17;74.36
32759;BME280;19125;52.360;9.974;2023-10-31T04:15:39;-15010.44;;;-145.17;74.00
32759;BME280;19125;52.360;9.974;2023-10-31T04:18:05;-15010.44;;;-145.17;73.96
32759;BME280;19125;52.360;9.974;2023-10-31T04:20:30;-15010.44;;;-145.17;73.46
32759;BME280;19125;52.360;9.974;2023-10-31T04:22:55;-15010.44;;;-145.17;73.29
32759;BME280;19125;52.360;9.974;2023-10-31T04:25:21;-15010.44;;;-145.17;73.06
32759;BME280;19125;52.360;9.974;2023-10-31T04:27:46;-15010.44;;;-145.17;72.83
32759;BME280;19125;52.360;9.974;2023-10-31T04:30:12;-15010.44;;;-145.17;72.46
32759;BME280;19125;52.360;9.974;2023-10-31T04:32:37;-15010.44;;;-145.17;72.24
32759;BME280;19125;52.360;9.974;2023-10-31T04:35:02;-15010.44;;;-145.17;72.03
32759;BME280;19125;52.360;9.974;2023-10-31T04:37:28;-15010.44;;;-145.17;72.20
32759;BME280;19125;52.360;9.974;2023-10-31T04:39:53;-15010.44;;;-145.17;71.80
32759;BME280;19125;52.360;9.974;2023-10-31T04:42:19;-15010.44;;;-145.17;71.62
32759;BME280;19125;52.360;9.974;2023-10-31T04:44:45;-15010.44;;;-145.17;71.32
32759;BME280;19125;52.360;9.974;2023-10-31T04:47:11;-15010.44;;;-145.17;71.07
32759;BME280;19125;52.360;9.974;2023-10-31T04:49:36;-15010.44;;;-145.17;70.75
32759;BME280;19125;52.360;9.974;2023-10-31T04:52:02;-15010.44;;;-145.17;70.46
32759;BME280;19125;52.360;9.974;2023-10-31T04:54:27;-15010.44;;;-145.17;69.83
32759;BME280;19125;52.360;9.974;2023-10-31T04:56:52;-15010.44;;;-145.17;69.42
32759;BME280;19125;52.360;9.974;2023-10-31T04:59:18;-15010.44;;;-145.17;68.95
32759;BME280;19125;52.360;9.974;2023-10-31T05:01:48;-15010.44;;;-145.17;68.52
32759;BME280;19125;52.360;9.974;2023-10-31T05:04:14;-15009.00;;;-145.17;67.97
32759;BME280;19125;52.360;9.974;2023-10-31T05:06:40;-14513.88;;;-145.17;67.87
32759;BME280;19125;52.360;9.974;2023-10-31T05:09:05;-13523.50;;;-145.17;67.07
32759;BME280;19125;52.360;9.974;2023-10-31T05:11:30;-12285.16;;;-145.17;66.66
32759;BME280;19125;52.360;9.974;2023-10-31T05:13:56;-10302.97;;;-145.17;66.23
32759;BME280;19125;52.360;9.974;2023-10-31T05:16:21;-8567.72;;;-145.17;65.78
32759;BME280;19125;52.360;9.974;2023-10-31T05:18:46;-6583.59;;;-145.17;65.33
32759;BME280;19125;52.360;9.974;2023-10-31T05:21:12;-3357.22;;;-145.17;64.59
32759;BME280;19125;52.360;9.974;2023-10-31T05:23:37;120.34;;;-145.17;64.09
32759;BME280;19125;52.360;9.974;2023-10-31T05:26:05;3601.06;;;-145.17;63.45
32759;BME280;19125;52.360;9.974;2023-10-31T05:28:30;6836.00;;;-145.17;62.88
32759;BME280;19125;52.360;9.974;2023-10-31T05:30:56;9824.47;;;-145.17;62.69
32759;BME280;19125;52.360;9.974;2023-10-31T05:33:21;12815.25;;;-145.17;62.41
32759;BME280;19125;52.360;9.974;2023-10-31T05:35:48;15059.84;;;-145.17;62.29
32759;BME280;19125;52.360;9.974;2023-10-31T05:38:13;17056.16;;;-145.17;61.90
32759;BME280;19125;52.360;9.974;2023-10-31T05:40:39;19303.19;;;-145.17;61.68
32759;BME280;19125;52.360;9.974;2023-10-31T05:43:04;21301.69;;;-145.17;61.62
32759;BME280;19125;52.360;9.974;2023-10-31T05:45:30;23551.19;;;-145.17;61.29
32759;BME280;19125;52.360;9.974;2023-10-31T05:47:55;25301.69;;;-145.17;61.16
32759;BME280;19125;52.360;9.974;2023-10-31T05:50:20;27053.00;;;-145.17;61.00
32759;BME280;19125;52.360;9.974;2023-10-31T05:52:46;27803.78;;;-145.17;61.09
32759;BME280;19125;52.360;9.974;2023-10-31T05:55:11;28054.09;;;-145.17;61.02
32759;BME280;19125;52.360;9.974;2023-10-31T05:57:37;28304.41;;;-145.17;61.00
32759;BME280;19125;52.360;9.974;2023-10-31T06:00:02;28805.09;;;-145.17;60.86
32759;BME280;19125;52.360;9.974;2023-10-31T06:02:28;29556.22;;;-145.17;60.87
32759;BME280;19125;52.360;9.974;2023-10-31T06:04:55;30057.06;;;-145.17;60.88
32759;BME280;19125;52.360;9.974;2023-10-31T06:07:20;30557.94;;;-145.17;60.95
32759;BME280;19125;52.360;9.974;2023-10-31T06:09:45;31309.41;;;-145.17;60.84
32759;BME280;19125;52.360;9.974;2023-10-31T06:12:11;32812.78;;;-145.17;60.42
32759;BME280;19125;52.360;9.974;2023-10-31T06:14:37;36072.09;;;-145.17;60.33
32759;BME280;19125;52.360;9.974;2023-10-31T06:17:02;38581.06;;;-145.17;60.02
32759;BME280;19125;52.360;9.974;2023-10-31T06:19:27;40589.41;;;-145.17;59.89
32759;BME280;19125;52.360;9.974;2023-10-31T06:21:53;41845.16;;;-145.17;59.97
32759;BME280;19125;52.360;9.974;2023-10-31T06:24:18;42096.34;;;-145.17;60.00
32759;BME280;19125;52.360;9.974;2023-10-31T06:26:43;42347.56;;;-145.17;60.09
32759;BME280;19125;52.360;9.974;2023-10-31T06:29:09;42096.34;;;-145.17;59.82
32759;BME280;19125;52.360;9.974;2023-10-31T06:31:34;42347.56;;;-145.17;59.79
32759;BME280;19125;52.360;9.974;2023-10-31T06:33:59;41593.97;;;-145.17;59.93
32759;BME280;19125;52.360;9.974;2023-10-31T06:36:25;41593.97;;;-145.17;60.02
32759;BME280;19125;52.360;9.974;2023-10-31T06:38:50;41845.16;;;-145.17;59.90
32759;BME280;19125;52.360;9.974;2023-10-31T06:41:15;43101.28;;;-145.17;59.85
32759;BME280;19125;52.360;9.974;2023-10-31T06:43:41;44357.84;;;-145.17;59.78
32759;BME280;19125;52.360;9.974;2023-10-31T06:46:06;44357.84;;;-145.17;59.92
32759;BME280;19125;52.360;9.974;2023-10-31T06:48:32;44357.84;;;-145.17;59.74
32759;BME280;19125;52.360;9.974;2023-10-31T06:50:57;45111.94;;;-145.17;59.92
32759;BME280;19125;52.360;9.974;2023-10-31T06:53:23;45866.22;;;-145.17;59.52
32759;BME280;19125;52.360;9.974;2023-10-31T06:55:48;46369.13;;;-145.17;59.60
32759;BME280;19125;52.360;9.974;2023-10-31T06:58:14;46369.13;;;-145.17;59.74
32759;BME280;19125;52.360;9.974;2023-10-31T07:00:39;46872.09;;;-145.17;59.40
32759;BME280;19125;52.360;9.974;2023-10-31T07:03:04;47626.69;;;-145.17;59.48
32759;BME280;19125;52.360;9.974;2023-10-31T07:05:34;48633.06;;;-145.17;59.36
32759;BME280;19125;52.360;9.974;2023-10-31T07:08:00;49388.00;;;-145.17;59.38
32759;BME280;19125;52.360;9.974;2023-10-31T07:10:25;49388.00;;;-145.17;59.50
32759;BME280;19125;52.360;9.974;2023-10-31T07:12:50;49388.00;;;-145.17;59.53
32759;BME280;19125;52.360;9.974;2023-10-31T07:15:16;49388.00;;;-145.17;59.44
32759;BME280;19125;52.360;9.974;2023-10-31T07:17:41;49639.66;;;-145.17;59.25
32759;BME280;19125;52.360;9.974;2023-10-31T07:20:07;49388.00;;;-145.17;59.66
32759;BME280;19125;52.360;9.974;2023-10-31T07:22:32;48884.69;;;-145.17;59.38
32759;BME280;19125;52.360;9.974;2023-10-31T07:24:59;48633.06;;;-145.17;59.52
32759;BME280;19125;52.360;9.974;2023-10-31T07:27:27;48129.84;;;-145.17;59.56
32759;BME280;19125;52.360;9.974;2023-10-31T07:29:52;49388.00;;;-145.17;59.38
32759;BME280;19125;52.360;9.974;2023-10-31T07:32:18;51150.06;;;-145.17;59.17
32759;BME280;19125;52.360;9.974;2023-10-31T07:34:43;51905.47;;;-145.17;59.35
32759;BME280;19125;52.360;9.974;2023-10-31T07:37:09;51653.66;;;-145.17;59.25
32759;BME280;19125;52.360;9.974;2023-10-31T07:39:34;51653.66;;;-145.17;59.24
32759;BME280;19125;52.360;9.974;2023-10-31T07:41:59;51150.06;;;-145.17;59.25
32759;BME280;19125;52.360;9.974;2023-10-31T07:44:25;50898.28;;;-145.17;59.34
32759;BME280;19125;52.360;9.974;2023-10-31T07:46:50;50898.28;;;-145.17;59.40
32759;BME280;19125;52.360;9.974;2023-10-31T07:49:15;51401.84;;;-145.17;59.39
32759;BME280;19125;52.360;9.974;2023-10-31T07:51:41;52157.31;;;-145.17;59.35
32759;BME280;19125;52.360;9.974;2023-10-31T07:54:07;52157.31;;;-145.17;59.23
32759;BME280;19125;52.360;9.974;2023-10-31T07:56:34;51150.06;;;-145.17;59.35
32759;BME280;19125;52.360;9.974;2023-10-31T07:59:01;50394.78;;;-145.17;59.41
32759;BME280;19125;52.360;9.974;2023-10-31T08:01:27;49639.66;;;-145.17;59.44
32759;BME280;19125;52.360;9.974;2023-10-31T08:03:53;49136.31;;;-145.17;59.60
32759;BME280;19125;52.360;9.974;2023-10-31T08:06:19;48884.69;;;-145.17;59.77
32759;BME280;19125;52.360;9.974;2023-10-31T08:08:44;47878.28;;;-145.17;59.62
32759;BME280;19125;52.360;9.974;2023-10-31T08:11:10;46369.13;;;-145.17;59.92
32759;BME280;19125;52.360;9.974;2023-10-31T08:13:39;44860.56;;;-145.17;60.29
32759;BME280;19125;52.360;9.974;2023-10-31T08:16:07;42850.03;;;-145.17;60.13
32759;BME280;19125;52.360;9.974;2023-10-31T08:18:33;41091.66;;;-145.17;60.38
32759;BME280;19125;52.360;9.974;2023-10-31T08:20:58;40840.53;;;-145.17;60.54
32759;BME280;19125;52.360;9.974;2023-10-31T08:23:24;40338.31;;;-145.17;60.54
32759;BME280;19125;52.360;9.974;2023-10-31T08:25:50;39334.09;;;-145.17;60.69
32759;BME280;19125;52.360;9.974;2023-10-31T08:28:15;37828.22;;;-145.17;60.64
32759;BME280;19125;52.360;9.974;2023-10-31T08:30:41;36824.63;;;-145.17;60.93
32759;BME280;19125;52.360;9.974;2023-10-31T08:33:06;36072.09;;;-145.17;60.92
32759;BME280;19125;52.360;9.974;2023-10-31T08:35:32;35821.28;;;-145.17;60.94
32759;BME280;19125;52.360;9.974;2023-10-31T08:37:58;35821.28;;;-145.17;60.77
32759;BME280;19125;52.360;9.974;2023-10-31T08:40:23;36072.09;;;-145.17;60.80
32759;BME280;19125;52.360;9.974;2023-10-31T08:42:48;36824.63;;;-145.17;60.84
32759;BME280;19125;52.360;9.974;2023-10-31T08:45:14;37326.38;;;-145.17;60.72
32759;BME280;19125;52.360;9.974;2023-10-31T08:47:39;37828.22;;;-145.17;60.58
32759;BME280;19125;52.360;9.974;2023-10-31T08:50:05;39083.06;;;-145.17;60.31
32759;BME280;19125;52.360;9.974;2023-10-31T08:52:33;40840.53;;;-145.17;60.21
32759;BME280;19125;52.360;9.974;2023-10-31T08:54:58;43603.84;;;-145.17;59.94
32759;BME280;19125;52.360;9.974;2023-10-31T08:57:24;47375.16;;;-145.17;59.58
32759;BME280;19125;52.360;9.974;2023-10-31T08:59:49;50646.53;;;-145.17;59.29
32759;BME280;19125;52.360;9.974;2023-10-31T09:02:14;53416.72;;;-145.17;58.99
32759;BME280;19125;52.360;9.974;2023-10-31T09:04:40;54676.56;;;-145.17;58.70
32759;BME280;19125;52.360;9.974;2023-10-31T09:07:05;57701.75;;;-145.17;58.57
32759;BME280;19125;52.360;9.974;2023-10-31T09:09:30;63311.19;;;-145.17;58.17
32759;BME280;19125;52.360;9.974;2023-10-31T09:11:56;68766.53;;;-145.17;57.72
32759;BME280;19125;52.360;9.974;2023-10-31T09:14:21;73220.44;;;-145.17;57.14
32759;BME280;19125;52.360;9.974;2023-10-31T09:16:46;76521.06;;;-145.17;56.88
32759;BME280;19125;52.360;9.974;2023-10-31T09:19:12;78180.31;;;-145.17;56.67
32759;BME280;19125;52.360;9.974;2023-10-31T09:21:37;79877.91;;;-145.17;56.67
32759;BME280;19125;52.360;9.974;2023-10-31T09:24:03;80607.09;;;-145.17;56.52
32759;BME280;19125;52.360;9.974;2023-10-31T09:26:28;81927.06;;;-145.17;56.06
32759;BME280;19125;52.360;9.974;2023-10-31T09:28:55;82868.75;;;-145.17;55.69
32759;BME280;19125;52.360;9.974;2023-10-31T09:31:20;83215.75;;;-145.17;55.76
32759;BME280;19125;52.360;9.974;2023-10-31T09:33:46;83774.97;;;-145.17;55.52
32759;BME280;19125;52.360;9.974;2023-10-31T09:36:11;84090.31;;;-145.17;55.59
32759;BME280;19125;52.360;9.974;2023-10-31T09:38:38;84560.41;;;-145.17;55.47
32759;BME280;19125;52.360;9.974;2023-10-31T09:41:04;84766.69;;;-145.17;55.54
32759;BME280;19125;52.360;9.974;2023-10-31T09:43:30;85012.69;;;-145.17;55.33
32759;BME280;19125;52.360;9.974;2023-10-31T09:45:57;84705.19;;;-145.17;55.65
32759;BME280;19125;52.360;9.974;2023-10-31T09:48:23;84090.31;;;-145.17;56.08
32759;BME280;19125;52.360;9.974;2023-10-31T09:50:49;83069.03;;;-145.17;56.41
32759;BME280;19125;52.360;9.974;2023-10-31T09:53:15;81600.00;;;-145.17;56.88
32759;BME280;19125;52.360;9.974;2023-10-31T09:55:44;79529.22;;;-145.17;57.27
32759;BME280;19125;52.360;9.974;2023-10-31T09:58:11;77982.28;;;-145.17;57.18
32759;BME280;19125;52.360;9.974;2023-10-31T10:00:37;77311.00;;;-145.17;57.38
32759;BME280;19125;52.360;9.974;2023-10-31T10:03:03;76192.47;;;-145.17;57.44
32759;BME280;19125;52.360;9.974;2023-10-31T10:05:31;74898.09;;;-145.17;57.53
32759;BME280;19125;52.360;9.974;2023-10-31T10:07:57;74096.78;;;-145.17;57.74
32759;BME280;19125;52.360;9.974;2023-10-31T10:10:23;72636.97;;;-145.17;58.16
32759;BME280;19125;52.360;9.974;2023-10-31T10:12:51;68711.22;;;-145.17;58.29
32759;BME280;19125;52.360;9.974;2023-10-31T10:15:16;66797.16;;;-145.17;58.46
32759;BME280;19125;52.360;9.974;2023-10-31T10:17:48;67310.66;;;-145.17;58.28
32759;BME280;19125;52.360;9.974;2023-10-31T10:20:14;70124.13;;;-145.17;57.91
32759;BME280;19125;52.360;9.974;2023-10-31T10:22:42;73839.59;;;-145.17;57.41
32759;BME280;19125;52.360;9.974;2023-10-31T10:25:18;78085.25;;;-145.17;57.00
32759;BME280;19125;52.360;9.974;2023-10-31T10:27:46;80563.47;;;-145.17;56.58
32759;BME280;19125;52.360;9.974;2023-10-31T10:30:13;82371.13;;;-145.17;56.28
32759;BME280;19125;52.360;9.974;2023-10-31T10:32:39;83540.97;;;-145.17;56.00
32759;BME280;19125;52.360;9.974;2023-10-31T10:35:06;84108.16;;;-145.17;55.89
32759;BME280;19125;52.360;9.974;2023-10-31T10:37:31;84245.03;;;-145.17;55.73
32759;BME280;19125;52.360;9.974;2023-10-31T10:39:57;84449.31;;;-145.17;55.94
32759;BME280;19125;52.360;9.974;2023-10-31T10:42:44;84461.22;;;-145.17;55.80
32759;BME280;19125;52.360;9.974;2023-10-31T10:45:12;84570.31;;;-145.17;56.07
32759;BME280;19125;52.360;9.974;2023-10-31T10:47:39;84562.38;;;-145.17;55.93
32759;BME280;19125;52.360;9.974;2023-10-31T10:50:06;84582.22;;;-145.17;55.54
32759;BME280;19125;52.360;9.974;2023-10-31T10:53:20;85115.84;;;-145.17;55.22
32759;BME280;19125;52.360;9.974;2023-10-31T10:55:45;85393.59;;;-145.17;55.28
32759;BME280;19125;52.360;9.974;2023-10-31T10:58:37;85572.16;;;-145.17;55.13
32759;BME280;19125;52.360;9.974;2023-10-31T11:01:07;85639.59;;;-145.17;55.00
32759;BME280;19125;52.360;9.974;2023-10-31T11:03:33;85766.59;;;-145.17;55.16
32759;BME280;19125;52.360;9.974;2023-10-31T11:05:59;85722.94;;;-145.17;54.98
32759;BME280;19125;52.360;9.974;2023-10-31T11:08:25;85742.78;;;-145.17;54.93
32759;BME280;19125;52.360;9.974;2023-10-31T11:10:52;85877.72;;;-145.17;55.22
32759;BME280;19125;52.360;9.974;2023-10-31T11:13:19;85853.91;;;-145.17;55.07
32759;BME280;19125;52.360;9.974;2023-10-31T11:15:45;85778.50;;;-145.17;55.05
32759;BME280;19125;52.360;9.974;2023-10-31T11:18:11;85968.97;;;-145.17;54.90
32759;BME280;19125;52.360;9.974;2023-10-31T11:20:37;86147.56;;;-145.17;54.64
32759;BME280;19125;52.360;9.974;2023-10-31T11:23:04;86165.44;;;-145.17;54.81
32759;BME280;19125;52.360;9.974;2023-10-31T11:25:32;86207.09;;;-145.17;54.79
32759;BME280;19125;52.360;9.974;2023-10-31T11:28:14;86272.59;;;-145.17;54.48
32759;BME280;19125;52.360;9.974;2023-10-31T11:30:40;86254.72;;;-145.17;54.48
32759;BME280;19125;52.360;9.974;2023-10-31T11:33:11;86258.69;;;-145.17;54.53
32759;BME280;19125;52.360;9.974;2023-10-31T11:35:41;86409.50;;;-145.17;54.45
32759;BME280;19125;52.360;9.974;2023-10-31T11:38:09;86429.34;;;-145.17;54.17
32759;BME280;19125;52.360;9.974;2023-10-31T11:40:37;86371.81;;;-145.17;54.49
32759;BME280;19125;52.360;9.974;2023-10-31T11:43:07;86361.88;;;-145.17;54.22
32759;BME280;19125;52.360;9.974;2023-10-31T11:45:42;86336.09;;;-145.17;54.62
32759;BME280;19125;52.360;9.974;2023-10-31T11:48:10;86294.41;;;-145.17;54.74
32759;BME280;19125;52.360;9.974;2023-10-31T11:50:37;86189.25;;;-145.17;54.83
32759;BME280;19125;52.360;9.974;2023-10-31T11:53:12;86030.50;;;-145.17;54.87
32759;BME280;19125;52.360;9.974;2023-10-31T11:55:46;85879.69;;;-145.17;54.72
32759;BME280;19125;52.360;9.974;2023-10-31T12:00:38;85703.09;;;-145.17;54.86
32759;BME280;19125;52.360;9.974;2023-10-31T12:03:04;85857.88;;;-145.17;54.99
32759;BME280;19125;52.360;9.974;2023-10-31T12:05:29;85988.81;;;-145.17;54.82
32759;BME280;19125;52.360;9.974;2023-10-31T12:07:55;85953.09;;;-145.17;54.77
32759;BME280;19125;52.360;9.974;2023-10-31T12:10:25;85842.00;;;-145.17;54.83
32759;BME280;19125;52.360;9.974;2023-10-31T12:12:52;86101.94;;;-145.17;54.32
32759;BME280;19125;52.360;9.974;2023-10-31T12:15:18;86330.13;;;-145.17;53.98
32759;BME280;19125;52.360;9.974;2023-10-31T12:17:44;86552.41;;;-145.17;53.82
32759;BME280;19125;52.360;9.974;2023-10-31T12:20:09;86635.75;;;-145.17;53.81
32759;BME280;19125;52.360;9.974;2023-10-31T12:22:35;86687.34;;;-145.17;53.86
32759;BME280;19125;52.360;9.974;2023-10-31T12:25:05;86651.63;;;-145.17;54.30
32759;BME280;19125;52.360;9.974;2023-10-31T12:30:13;86528.59;;;-145.17;54.25
32759;BME280;19125;52.360;9.974;2023-10-31T12:32:43;86526.59;;;-145.17;53.92
32759;BME280;19125;52.360;9.974;2023-10-31T12:35:14;86643.69;;;-145.17;53.74